createdAt,value
2019-05-15T00:00:13.643Z,96033.05
2019-05-15T00:02:42.035Z,96025.95
2019-05-15T00:05:10.406Z,96024.72
2019-05-15T00:07:39.371Z,96021.38
2019-05-15T00:10:08.729Z,96018.22
2019-05-15T00:12:35.515Z,96017.27
2019-05-15T00:15:09.359Z,96012.12
2019-05-15T00:17:35.830Z,96014.92
2019-05-15T00:22:40.397Z,96007.90
2019-05-15T00:25:09.654Z,96005.64
2019-05-15T00:27:38.773Z,96006.16
2019-05-15T00:30:08.681Z,96005.84
2019-05-15T00:32:38.993Z,96007.95
2019-05-15T00:35:06.456Z,96003.92
2019-05-15T00:37:34.791Z,95998.46
2019-05-15T00:40:05.057Z,95997.73
2019-05-15T00:42:33.399Z,95994.89
2019-05-15T00:45:09.116Z,95986.05
2019-05-15T00:47:35.905Z,95982.02
2019-05-15T00:50:11.195Z,95983.69
2019-05-15T00:52:39.619Z,95982.23
2019-05-15T00:55:12.259Z,95973.45
2019-05-15T00:57:40.631Z,95973.49
2019-05-15T01:02:48.730Z,95973.03
2019-05-15T01:07:49.744Z,95962.10
2019-05-15T01:10:22.159Z,95960.79
2019-05-15T01:12:51.448Z,95959.38
2019-05-15T01:15:24.965Z,95958.09
2019-05-15T01:17:53.305Z,95952.66
2019-05-15T01:20:21.645Z,95949.73
2019-05-15T01:22:49.983Z,95948.64
2019-05-15T01:25:25.411Z,95949.66
2019-05-15T01:27:59.530Z,95947.08
2019-05-15T01:30:28.670Z,95944.98
2019-05-15T01:32:56.224Z,95944.70
2019-05-15T01:35:24.577Z,95937.79
2019-05-15T01:37:58.876Z,95934.29
2019-05-15T01:40:28.919Z,95932.89
2019-05-15T01:42:58.303Z,95931.03
2019-05-15T01:45:25.834Z,95928.94
2019-05-15T01:47:58.580Z,95929.67
2019-05-15T01:50:26.130Z,95922.83
2019-05-15T01:52:55.400Z,95922.06
2019-05-15T01:55:23.777Z,95923.28
2019-05-15T01:57:58.058Z,95921.72
2019-05-15T02:00:28.209Z,95919.41
2019-05-15T02:02:59.414Z,95918.75
2019-05-15T02:05:28.284Z,95913.04
2019-05-15T02:07:58.545Z,95912.30
2019-05-15T02:10:30.005Z,95910.69
2019-05-15T02:15:32.561Z,95902.30
2019-05-15T02:18:08.380Z,95900.48
2019-05-15T02:20:35.465Z,95904.55
2019-05-15T02:23:11.738Z,95903.41
2019-05-15T02:25:38.602Z,95901.05
2019-05-15T02:28:04.798Z,95900.75
2019-05-15T02:30:34.228Z,95897.86
2019-05-15T02:35:39.410Z,95890.11
2019-05-15T02:38:10.333Z,95891.97
2019-05-15T02:40:35.429Z,95888.39
2019-05-15T02:45:42.768Z,95888.33
2019-05-15T02:48:10.886Z,95884.22
2019-05-15T02:50:39.540Z,95882.25
2019-05-15T02:53:09.973Z,95883.73
2019-05-15T02:55:35.946Z,95882.73
2019-05-15T02:58:04.296Z,95882.22
2019-05-15T03:00:46.017Z,95883.67
2019-05-15T03:03:02.009Z,95889.95
2019-05-15T03:05:30.286Z,95882.71
2019-05-15T03:10:35.850Z,95879.16
2019-05-15T03:13:04.290Z,95876.31
2019-05-15T03:15:32.636Z,95874.00
2019-05-15T03:20:40.652Z,95871.46
2019-05-15T03:23:10.248Z,95873.38
2019-05-15T03:25:40.497Z,95877.73
2019-05-15T03:28:10.082Z,95872.25
2019-05-15T03:31:06.891Z,95870.38
2019-05-15T03:35:42.873Z,95867.00
2019-05-15T03:38:09.364Z,95872.83
2019-05-15T03:40:39.708Z,95862.33
2019-05-15T03:43:05.512Z,95873.16
2019-05-15T03:45:35.787Z,95865.56
2019-05-15T03:48:09.379Z,95867.72
2019-05-15T03:50:35.392Z,95867.12
2019-05-15T03:53:03.729Z,95867.38
2019-05-15T03:55:32.067Z,95871.03
2019-05-15T03:58:04.137Z,95868.48
2019-05-15T04:00:32.541Z,95869.00
2019-05-15T04:03:04.804Z,95866.45
2019-05-15T04:05:33.151Z,95861.51
2019-05-15T04:08:11.300Z,95861.59
2019-05-15T04:10:39.842Z,95863.29
2019-05-15T04:13:09.405Z,95863.79
2019-05-15T04:15:35.291Z,95862.73
2019-05-15T04:18:03.667Z,95858.36
2019-05-15T04:20:32.085Z,95864.81
2019-05-15T04:25:40.595Z,95854.77
2019-05-15T04:28:09.937Z,95857.19
2019-05-15T04:30:39.207Z,95852.77
2019-05-15T04:33:09.595Z,95851.37
2019-05-15T04:35:35.090Z,95849.69
2019-05-15T04:38:03.432Z,95848.13
2019-05-15T04:40:31.839Z,95847.52
2019-05-15T04:43:02.096Z,95840.67
2019-05-15T04:45:34.622Z,95845.70
2019-05-15T04:48:03.447Z,95843.91
2019-05-15T04:50:31.807Z,95849.28
2019-05-15T04:53:00.137Z,95843.88
2019-05-15T04:58:03.637Z,95850.13
2019-05-15T05:00:49.515Z,95848.70
2019-05-15T05:03:14.913Z,95844.53
2019-05-15T05:05:43.455Z,95842.31
2019-05-15T05:08:11.852Z,95839.05
2019-05-15T05:10:40.191Z,95836.92
2019-05-15T05:13:08.910Z,95844.10
2019-05-15T05:15:38.927Z,95842.33
2019-05-15T05:18:05.435Z,95842.91
2019-05-15T05:20:33.740Z,95839.25
2019-05-15T05:23:08.411Z,95838.42
2019-05-15T05:25:34.561Z,95835.59
2019-05-15T05:28:12.874Z,95838.48
2019-05-15T05:30:41.269Z,95837.14
2019-05-15T05:33:09.608Z,95837.16
2019-05-15T05:35:38.730Z,95833.81
2019-05-15T05:38:07.836Z,95837.25
2019-05-15T05:40:34.708Z,95841.66
2019-05-15T05:43:04.050Z,95838.64
2019-05-15T05:45:32.368Z,95840.77
2019-05-15T05:48:08.700Z,95834.83
2019-05-15T05:50:34.935Z,95838.38
2019-05-15T05:55:40.493Z,95844.53
2019-05-15T05:58:10.809Z,95841.73
2019-05-15T06:00:40.099Z,95842.76
2019-05-15T06:03:10.435Z,95839.76
2019-05-15T06:05:42.295Z,95841.70
2019-05-15T06:08:22.496Z,95845.50
2019-05-15T06:11:10.064Z,95843.28
2019-05-15T06:13:38.418Z,95847.42
2019-05-15T06:16:08.633Z,95845.18
2019-05-15T06:18:38.876Z,95847.55
2019-05-15T06:21:29.981Z,95847.81
2019-05-15T06:24:08.273Z,95848.09
2019-05-15T06:26:34.806Z,95848.00
2019-05-15T06:29:17.953Z,95843.83
2019-05-15T06:32:15.049Z,95845.87
2019-05-15T06:34:43.387Z,95849.88
2019-05-15T06:37:11.733Z,95852.34
2019-05-15T06:39:59.783Z,95848.89
2019-05-15T06:42:28.411Z,95855.77
2019-05-15T06:45:03.606Z,95855.50
2019-05-15T06:47:39.445Z,95851.36
2019-05-15T06:50:09.608Z,95852.28
2019-05-15T06:52:41.391Z,95854.47
2019-05-15T06:57:48.506Z,95856.27
2019-05-15T07:00:15.278Z,95854.95
2019-05-15T07:02:53.385Z,95860.84
2019-05-15T07:05:22.649Z,95861.36
2019-05-15T07:08:03.900Z,95860.65
2019-05-15T07:10:34.387Z,95865.54
2019-05-15T07:13:08.845Z,95862.00
2019-05-15T07:15:53.712Z,95867.55
2019-05-15T07:18:22.046Z,95867.77
2019-05-15T07:20:50.408Z,95871.44
2019-05-15T07:23:19.146Z,95870.27
2019-05-15T07:25:49.730Z,95868.36
2019-05-15T07:28:17.926Z,95868.75
2019-05-15T07:30:49.498Z,95869.52
2019-05-15T07:33:35.268Z,95876.53
2019-05-15T07:38:28.194Z,95880.23
2019-05-15T07:41:03.771Z,95873.67
2019-05-15T07:43:33.253Z,95871.64
2019-05-15T07:46:08.446Z,95875.73
2019-05-15T07:48:58.459Z,95883.43
2019-05-15T07:51:48.603Z,95879.84
2019-05-15T07:54:15.290Z,95877.30
2019-05-15T07:56:55.022Z,95879.06
2019-05-15T07:59:27.975Z,95872.76
2019-05-15T08:04:57.685Z,95869.52
2019-05-15T08:07:38.983Z,95873.34
2019-05-15T08:10:08.701Z,95871.06
2019-05-15T08:15:11.492Z,95868.30
2019-05-15T08:20:33.748Z,95862.42
2019-05-15T08:23:03.047Z,95857.11
2019-05-15T08:25:38.969Z,95858.38
2019-05-15T08:28:08.864Z,95860.64
2019-05-15T08:30:38.156Z,95863.77
2019-05-15T08:33:04.598Z,95862.42
2019-05-15T08:35:35.718Z,95863.33
2019-05-15T08:38:05.278Z,95860.91
2019-05-15T08:43:11.587Z,95857.77
2019-05-15T08:45:42.369Z,95859.69
2019-05-15T08:48:11.593Z,95862.76
2019-05-15T08:51:05.772Z,95861.64
2019-05-15T08:56:10.583Z,95864.75
2019-05-15T08:58:38.922Z,95863.34
2019-05-15T09:01:09.766Z,95861.14
2019-05-15T09:06:12.284Z,95858.23
2019-05-15T09:08:45.629Z,95858.94
2019-05-15T09:11:14.148Z,95856.45
2019-05-15T09:13:53.731Z,95854.80
2019-05-15T09:16:18.462Z,95853.20
2019-05-15T09:18:48.528Z,95845.88
2019-05-15T09:21:16.148Z,95846.14
2019-05-15T09:26:31.484Z,95836.30
2019-05-15T09:29:00.747Z,95836.92
2019-05-15T09:31:58.667Z,95839.58
2019-05-15T09:37:02.744Z,95834.66
2019-05-15T09:39:39.385Z,95841.14
2019-05-15T09:42:09.410Z,95836.23
2019-05-15T09:44:45.087Z,95835.16
2019-05-15T09:47:13.479Z,95830.18
2019-05-15T09:49:43.832Z,95828.69
2019-05-15T09:52:12.312Z,95828.27
2019-05-15T09:57:18.809Z,95819.48
2019-05-15T09:59:48.682Z,95816.75
2019-05-15T10:02:19.598Z,95812.39
2019-05-15T10:05:06.673Z,95815.05
2019-05-15T10:10:08.679Z,95808.09
2019-05-15T10:12:38.621Z,95803.23
2019-05-15T10:15:10.878Z,95807.60
2019-05-15T10:17:39.884Z,95801.09
2019-05-15T10:20:11.707Z,95792.68
2019-05-15T10:22:58.880Z,95802.78
2019-05-15T10:28:04.718Z,95802.34
2019-05-15T10:31:00.164Z,95800.69
2019-05-15T10:33:58.298Z,95788.78
2019-05-15T10:36:30.103Z,95784.56
2019-05-15T10:44:12.934Z,95783.02
2019-05-15T10:46:48.344Z,95783.88
2019-05-15T10:49:15.225Z,95775.17
2019-05-15T10:52:00.690Z,95772.97
2019-05-15T10:57:06.168Z,95771.05
2019-05-15T11:00:01.653Z,95769.48
2019-05-15T11:02:39.488Z,95767.05
2019-05-15T11:05:09.456Z,95758.88
2019-05-15T11:07:42.175Z,95761.13
2019-05-15T11:10:10.559Z,95757.94
2019-05-15T11:12:58.207Z,95752.80
2019-05-15T11:18:02.839Z,95754.34
2019-05-15T11:20:41.345Z,95751.19
2019-05-15T11:23:08.198Z,95753.14
2019-05-15T11:28:12.716Z,95745.36
2019-05-15T11:33:18.913Z,95742.05
2019-05-15T11:36:05.451Z,95744.62
2019-05-15T11:38:53.757Z,95747.15
2019-05-15T11:41:42.161Z,95744.25
2019-05-15T11:44:11.402Z,95744.77
2019-05-15T11:46:43.373Z,95739.94
2019-05-15T11:49:13.678Z,95737.11
2019-05-15T11:51:49.167Z,95736.56
2019-05-15T11:54:18.918Z,95735.73
2019-05-15T11:59:48.525Z,95720.70
2019-05-15T12:02:18.649Z,95725.84
2019-05-15T12:07:25.374Z,95726.50
2019-05-15T12:09:58.982Z,95728.00
2019-05-15T12:12:38.810Z,95731.25
2019-05-15T12:15:06.862Z,95734.59
2019-05-15T12:17:39.158Z,95729.73
2019-05-15T12:20:07.276Z,95729.62
2019-05-15T12:22:39.429Z,95730.81
2019-05-15T12:25:09.681Z,95734.06
2019-05-15T12:27:39.569Z,95730.30
2019-05-15T12:30:09.981Z,95733.09
2019-05-15T12:32:50.001Z,95731.91
2019-05-15T12:35:20.519Z,95729.97
2019-05-15T12:37:58.784Z,95739.63
2019-05-15T13:00:51.036Z,95730.44
2019-05-15T13:03:28.683Z,95730.79
2019-05-15T13:05:59.639Z,95725.50
2019-05-15T13:08:29.144Z,95726.04
2019-05-15T13:10:58.027Z,95726.35
2019-05-15T13:13:28.379Z,95723.73
2019-05-15T13:16:08.630Z,95724.50
2019-05-15T13:18:38.786Z,95723.95
2019-05-15T13:21:20.876Z,95721.80
2019-05-15T13:26:29.898Z,95722.48
2019-05-15T13:28:58.582Z,95713.12
2019-05-15T13:31:28.459Z,95711.27
2019-05-15T13:34:21.436Z,95709.04
2019-05-15T13:37:04.477Z,95711.40
2019-05-15T13:39:32.837Z,95711.15
2019-05-15T13:42:18.554Z,95711.11
2019-05-15T13:44:47.813Z,95711.02
2019-05-15T13:47:18.171Z,95711.20
2019-05-15T13:52:24.791Z,95713.09
2019-05-15T13:54:58.464Z,95712.63
2019-05-15T13:57:48.695Z,95711.34
2019-05-15T14:00:17.511Z,95714.67
2019-05-15T14:02:49.761Z,95712.82
2019-05-15T14:05:20.017Z,95704.73
2019-05-15T14:07:49.744Z,95707.17
2019-05-15T14:10:18.099Z,95704.02
2019-05-15T14:15:21.481Z,95703.42
2019-05-15T14:20:49.088Z,95699.24
2019-05-15T14:23:18.476Z,95698.84
2019-05-15T14:25:44.970Z,95692.17
2019-05-15T14:28:13.344Z,95690.35
2019-05-15T14:30:58.906Z,95685.64
2019-05-15T14:33:29.273Z,95680.95
2019-05-15T14:35:59.068Z,95684.67
2019-05-15T14:38:30.630Z,95683.09
2019-05-15T14:43:44.148Z,95687.00
2019-05-15T14:46:12.761Z,95693.31
2019-05-15T14:48:42.277Z,95687.63
2019-05-15T14:51:10.660Z,95689.66
2019-05-15T14:56:21.232Z,95690.64
2019-05-15T14:58:51.505Z,95691.62
2019-05-15T15:01:20.928Z,95691.27
2019-05-15T15:04:00.465Z,95687.44
2019-05-15T15:06:41.958Z,95690.30
2019-05-15T15:09:10.429Z,95693.11
2019-05-15T15:14:15.047Z,95686.58
2019-05-15T15:16:43.461Z,95686.59
2019-05-15T15:21:48.665Z,95686.45
2019-05-15T15:24:18.923Z,95693.87
2019-05-15T15:26:53.371Z,95690.72
2019-05-15T15:31:58.960Z,95689.27
2019-05-15T15:34:29.723Z,95687.43
2019-05-15T15:37:10.169Z,95688.57
2019-05-15T15:39:38.751Z,95689.77
2019-05-15T15:42:12.836Z,95686.55
2019-05-15T15:44:41.457Z,95683.94
2019-05-15T15:47:13.753Z,95683.83
2019-05-15T15:49:42.127Z,95685.52
2019-05-15T15:52:18.101Z,95679.64
2019-05-15T15:54:44.715Z,95680.98
2019-05-15T15:59:49.127Z,95679.43
2019-05-15T16:02:35.501Z,95675.47
2019-05-15T16:05:08.110Z,95681.11
2019-05-15T16:07:37.982Z,95677.24
2019-05-15T16:12:40.902Z,95674.50
2019-05-15T16:15:13.168Z,95675.77
2019-05-15T16:19:20.623Z,95668.89
2019-05-15T16:21:50.998Z,95675.62
2019-05-15T16:24:21.840Z,95677.07
2019-05-15T16:26:50.033Z,95675.79
2019-05-15T16:32:00.715Z,95676.47
2019-05-15T16:34:32.229Z,95676.24
2019-05-15T16:37:08.894Z,95682.38
2019-05-15T16:39:38.236Z,95677.38
2019-05-15T16:42:06.824Z,95681.20
2019-05-15T16:47:18.454Z,95674.11
2019-05-15T16:49:45.672Z,95680.57
2019-05-15T16:52:14.040Z,95679.58
2019-05-15T16:54:42.435Z,95676.21
2019-05-15T16:57:18.432Z,95677.51
2019-05-15T16:59:48.047Z,95676.91
2019-05-15T17:02:20.334Z,95676.05
2019-05-15T17:04:48.929Z,95675.83
2019-05-15T17:07:18.235Z,95674.45
2019-05-15T17:09:45.479Z,95677.12
2019-05-15T17:12:13.868Z,95675.33
2019-05-15T17:14:42.200Z,95669.55
2019-05-15T17:17:10.630Z,95674.92
2019-05-15T17:19:39.037Z,95672.86
2019-05-15T17:22:09.484Z,95675.73
2019-05-15T17:24:38.715Z,95674.29
2019-05-15T17:27:22.475Z,95680.63
2019-05-15T17:32:32.182Z,95682.04
2019-05-15T17:37:40.664Z,95679.64
2019-05-15T17:40:09.995Z,95685.94
2019-05-15T17:42:39.223Z,95683.67
2019-05-15T17:45:28.285Z,95682.33
2019-05-15T17:47:59.760Z,95685.78
2019-05-15T17:53:11.509Z,95684.39
2019-05-15T17:55:39.938Z,95681.56
2019-05-15T17:58:31.897Z,95685.63
2019-05-15T18:01:19.330Z,95687.41
2019-05-15T18:03:48.591Z,95684.39
2019-05-15T18:06:29.079Z,95686.27
2019-05-15T18:11:33.407Z,95682.94
2019-05-15T18:16:47.774Z,95686.37
2019-05-15T18:19:31.737Z,95688.52
2019-05-15T18:22:10.977Z,95689.73
2019-05-15T18:24:39.336Z,95688.30
2019-05-15T18:29:53.867Z,95685.71
2019-05-15T18:34:59.483Z,95691.86
2019-05-15T18:37:33.930Z,95694.87
2019-05-15T18:40:10.272Z,95691.80
2019-05-15T18:45:26.239Z,95694.56
2019-05-15T18:47:54.580Z,95695.08
2019-05-15T18:50:41.225Z,95696.84
2019-05-15T18:53:10.474Z,95696.06
2019-05-15T18:55:42.292Z,95697.58
2019-05-15T18:58:34.550Z,95699.34
2019-05-15T19:01:09.085Z,95700.16
2019-05-15T19:03:41.214Z,95703.43
2019-05-15T19:06:11.533Z,95698.25
2019-05-15T19:11:28.910Z,95699.88
2019-05-15T19:13:55.739Z,95699.66
2019-05-15T19:16:24.073Z,95705.69
2019-05-15T19:18:53.426Z,95707.84
2019-05-15T19:24:10.717Z,95706.42
2019-05-15T19:26:44.846Z,95705.80
2019-05-15T19:31:49.445Z,95710.16
2019-05-15T19:34:38.775Z,95708.16
2019-05-15T19:37:08.750Z,95707.12
2019-05-15T19:39:39.107Z,95702.60
2019-05-15T19:42:08.895Z,95706.73
2019-05-15T19:47:10.071Z,95706.49
2019-05-15T19:49:38.435Z,95707.02
2019-05-15T19:52:08.697Z,95709.95
2019-05-15T19:57:11.273Z,95711.09
2019-05-15T19:59:48.821Z,95708.10
2019-05-15T20:02:15.450Z,95707.93
2019-05-15T20:04:43.848Z,95710.88
2019-05-15T20:07:12.304Z,95708.81
2019-05-15T20:09:47.720Z,95708.16
2019-05-15T20:12:14.434Z,95705.80
2019-05-15T20:17:23.042Z,95704.96
2019-05-15T20:19:52.302Z,95698.76
2019-05-15T20:22:23.685Z,95699.94
2019-05-15T20:24:58.347Z,95695.55
2019-05-15T20:27:28.081Z,95690.36
2019-05-15T20:29:56.208Z,95694.87
2019-05-15T20:32:24.601Z,95689.95
2019-05-15T20:34:53.956Z,95689.09
2019-05-15T20:37:22.351Z,95688.76
2019-05-15T20:39:51.690Z,95695.44
2019-05-15T20:42:20.034Z,95685.69
2019-05-15T20:44:48.695Z,95683.27
2019-05-15T20:47:18.741Z,95682.04
2019-05-15T20:49:48.584Z,95677.64
2019-05-15T20:52:20.877Z,95674.52
2019-05-15T20:54:45.210Z,95673.92
2019-05-15T20:57:13.693Z,95672.25
2019-05-15T20:59:43.056Z,95671.01
2019-05-15T21:02:12.328Z,95671.74
2019-05-15T21:04:48.778Z,95666.48
2019-05-15T21:07:27.618Z,95664.84
2019-05-15T21:09:48.375Z,95667.03
2019-05-15T21:12:14.870Z,95669.50
2019-05-15T21:14:44.161Z,95662.20
2019-05-15T21:17:12.871Z,95664.21
2019-05-15T21:19:44.650Z,95661.30
2019-05-15T21:22:13.032Z,95657.72
2019-05-15T21:24:41.426Z,95657.22
2019-05-15T21:29:43.978Z,95656.58
2019-05-15T21:32:14.379Z,95656.11
2019-05-15T21:34:44.415Z,95663.18
2019-05-15T21:37:12.062Z,95663.09
2019-05-15T21:39:41.275Z,95660.86
2019-05-15T21:42:10.656Z,95659.08
2019-05-15T21:44:39.031Z,95653.94
2019-05-15T21:49:43.631Z,95649.83
2019-05-15T21:52:11.987Z,95650.61
2019-05-15T21:54:40.398Z,95648.56
2019-05-15T21:57:29.112Z,95642.08
2019-05-15T21:59:38.388Z,95640.47
2019-05-15T22:02:05.504Z,95637.28
2019-05-15T22:04:51.288Z,95634.73
2019-05-15T22:07:08.862Z,95633.30
2019-05-15T22:09:38.275Z,95629.43
2019-05-15T22:12:06.628Z,95628.39
2019-05-15T22:14:34.965Z,95628.48
2019-05-15T22:19:39.552Z,95618.56
2019-05-15T22:22:08.925Z,95619.28
2019-05-15T22:24:37.885Z,95620.21
2019-05-15T22:29:39.919Z,95616.61
2019-05-15T22:32:08.311Z,95614.48
2019-05-15T22:34:36.686Z,95613.30
2019-05-15T22:37:05.027Z,95609.48
2019-05-15T22:39:35.356Z,95607.55
2019-05-15T22:42:03.725Z,95605.73
2019-05-15T22:44:32.163Z,95603.87
2019-05-15T22:47:01.447Z,95606.59
2019-05-15T22:49:29.826Z,95606.93
2019-05-15T22:51:58.249Z,95605.51
2019-05-15T22:54:28.075Z,95602.06
2019-05-15T22:56:55.003Z,95598.70
2019-05-15T23:02:00.582Z,95592.34
2019-05-15T23:04:29.995Z,95585.59
2019-05-15T23:06:58.345Z,95590.52
2019-05-15T23:12:10.829Z,95574.77
2019-05-15T23:14:37.957Z,95573.02
2019-05-15T23:17:08.001Z,95567.50
2019-05-15T23:22:08.448Z,95573.23
2019-05-15T23:24:38.574Z,95567.20
2019-05-15T23:27:04.898Z,95567.38
2019-05-15T23:29:34.145Z,95560.69
2019-05-15T23:32:02.537Z,95557.12
2019-05-15T23:34:30.905Z,95550.06
2019-05-15T23:37:00.294Z,95546.34
2019-05-15T23:39:28.640Z,95540.23
2019-05-15T23:42:04.943Z,95542.83
2019-05-15T23:44:33.293Z,95534.70
2019-05-15T23:47:01.655Z,95533.75
2019-05-15T23:49:30.013Z,95527.24
2019-05-15T23:51:58.374Z,95526.46
2019-05-15T23:54:28.814Z,95524.44
2019-05-15T23:56:58.426Z,95519.17
2019-05-15T23:59:25.528Z,95514.65
